sensor_id;sensor_type;location;lat;lon;timestamp;P1;P2;P0
80555;PMS5003;69889;55.040;73.076;2023-11-22T00:01:06;19.00;16.00;11.25
80555;PMS5003;69889;55.040;73.076;2023-11-22T00:03:32;20.00;16.00;10.00
80555;PMS5003;69889;55.040;73.076;2023-11-22T00:05:59;17.00;14.25;8.75
80555;PMS5003;69889;55.040;73.076;2023-11-22T00:08:27;16.00;15.00;9.25
80555;PMS5003;69889;55.040;73.076;2023-11-22T00:11:01;17.00;15.00;9.75
80555;PMS5003;69889;55.040;73.076;2023-11-22T00:13:31;18.00;16.00;10.50
80555;PMS5003;69889;55.040;73.076;2023-11-22T00:15:58;18.75;16.50;11.00
80555;PMS5003;69889;55.040;73.076;2023-11-22T00:18:24;18.00;16.50;10.00
80555;PMS5003;69889;55.040;73.076;2023-11-22T00:20:52;19.00;17.00;11.00
80555;PMS5003;69889;55.040;73.076;2023-11-22T00:23:18;19.00;17.00;10.75
80555;PMS5003;69889;55.040;73.076;2023-11-22T00:25:44;20.25;16.50;10.25
80555;PMS5003;69889;55.040;73.076;2023-11-22T00:28:11;18.75;17.00;11.25
80555;PMS5003;69889;55.040;73.076;2023-11-22T00:30:37;18.75;16.00;10.75
80555;PMS5003;69889;55.040;73.076;2023-11-22T00:33:04;20.00;17.00;11.50
80555;PMS5003;69889;55.040;73.076;2023-11-22T00:35:30;16.50;13.75;9.50
80555;PMS5003;69889;55.040;73.076;2023-11-22T00:37:57;15.00;13.50;9.00
80555;PMS5003;69889;55.040;73.076;2023-11-22T00:40:24;22.75;19.50;11.00
80555;PMS5003;69889;55.040;73.076;2023-11-22T00:42:50;19.00;15.00;10.00
80555;PMS5003;69889;55.040;73.076;2023-11-22T00:45:17;17.25;16.00;10.00
80555;PMS5003;69889;55.040;73.076;2023-11-22T00:47:44;16.00;13.50;8.00
80555;PMS5003;69889;55.040;73.076;2023-11-22T00:50:10;15.00;13.00;8.00
80555;PMS5003;69889;55.040;73.076;2023-11-22T00:52:37;13.00;11.00;8.00
80555;PMS5003;69889;55.040;73.076;2023-11-22T00:55:03;17.00;15.00;9.00
80555;PMS5003;69889;55.040;73.076;2023-11-22T00:57:30;15.75;14.00;8.25
80555;PMS5003;69889;55.040;73.076;2023-11-22T00:59:56;14.75;13.00;8.00
80555;PMS5003;69889;55.040;73.076;2023-11-22T01:02:23;13.00;11.00;8.00
80555;PMS5003;69889;55.040;73.076;2023-11-22T01:04:49;13.50;12.00;7.75
80555;PMS5003;69889;55.040;73.076;2023-11-22T01:07:16;13.00;12.00;8.00
80555;PMS5003;69889;55.040;73.076;2023-11-22T01:09:42;14.00;12.00;7.00
80555;PMS5003;69889;55.040;73.076;2023-11-22T01:12:09;12.00;12.00;8.00
80555;PMS5003;69889;55.040;73.076;2023-11-22T01:14:38;11.50;10.00;6.50
80555;PMS5003;69889;55.040;73.076;2023-11-22T01:17:05;15.00;13.00;7.75
80555;PMS5003;69889;55.040;73.076;2023-11-22T01:19:35;16.00;14.00;8.00
80555;PMS5003;69889;55.040;73.076;2023-11-22T01:22:02;14.00;12.50;8.50
80555;PMS5003;69889;55.040;73.076;2023-11-22T01:24:31;14.00;11.25;8.00
80555;PMS5003;69889;55.040;73.076;2023-11-22T01:27:00;12.00;9.75;7.00
80555;PMS5003;69889;55.040;73.076;2023-11-22T01:29:27;13.00;11.00;7.00
80555;PMS5003;69889;55.040;73.076;2023-11-22T01:31:54;13.00;10.00;7.00
80555;PMS5003;69889;55.040;73.076;2023-11-22T01:34:21;12.50;10.00;7.00
80555;PMS5003;69889;55.040;73.076;2023-11-22T01:36:50;11.00;10.00;7.00
80555;PMS5003;69889;55.040;73.076;2023-11-22T01:39:17;13.00;12.00;8.00
80555;PMS5003;69889;55.040;73.076;2023-11-22T01:41:44;11.50;10.00;7.00
80555;PMS5003;69889;55.040;73.076;2023-11-22T01:44:10;14.00;12.00;7.00
80555;PMS5003;69889;55.040;73.076;2023-11-22T01:46:37;14.75;13.75;8.00
80555;PMS5003;69889;55.040;73.076;2023-11-22T01:49:03;17.00;15.00;10.00
80555;PMS5003;69889;55.040;73.076;2023-11-22T01:51:30;17.75;14.75;8.75
80555;PMS5003;69889;55.040;73.076;2023-11-22T01:53:56;16.00;14.75;9.00
80555;PMS5003;69889;55.040;73.076;2023-11-22T01:56:24;20.00;16.00;9.75
80555;PMS5003;69889;55.040;73.076;2023-11-22T01:58:52;21.00;18.00;11.75
80555;PMS5003;69889;55.040;73.076;2023-11-22T02:01:21;18.00;15.00;9.75
80555;PMS5003;69889;55.040;73.076;2023-11-22T02:03:47;22.00;19.00;13.00
80555;PMS5003;69889;55.040;73.076;2023-11-22T02:06:17;17.00;15.00;10.00
80555;PMS5003;69889;55.040;73.076;2023-11-22T02:08:43;15.00;12.25;8.00
80555;PMS5003;69889;55.040;73.076;2023-11-22T02:11:10;13.50;12.00;8.00
80555;PMS5003;69889;55.040;73.076;2023-11-22T02:13:37;11.25;10.00;6.00
80555;PMS5003;69889;55.040;73.076;2023-11-22T02:16:03;13.00;10.75;7.00
80555;PMS5003;69889;55.040;73.076;2023-11-22T02:18:30;15.50;13.00;7.00
80555;PMS5003;69889;55.040;73.076;2023-11-22T02:20:57;12.00;10.25;7.50
80555;PMS5003;69889;55.040;73.076;2023-11-22T02:23:24;11.00;9.75;6.75
80555;PMS5003;69889;55.040;73.076;2023-11-22T02:25:50;13.00;11.00;7.25
80555;PMS5003;69889;55.040;73.076;2023-11-22T02:28:17;13.50;11.50;7.00
80555;PMS5003;69889;55.040;73.076;2023-11-22T02:30:43;13.00;11.75;8.00
80555;PMS5003;69889;55.040;73.076;2023-11-22T02:33:09;12.00;10.25;7.00
80555;PMS5003;69889;55.040;73.076;2023-11-22T02:35:36;12.50;12.00;8.00
80555;PMS5003;69889;55.040;73.076;2023-11-22T02:38:03;13.75;11.75;7.00
80555;PMS5003;69889;55.040;73.076;2023-11-22T02:40:31;17.00;14.00;8.00
80555;PMS5003;69889;55.040;73.076;2023-11-22T02:42:58;15.00;12.00;8.25
80555;PMS5003;69889;55.040;73.076;2023-11-22T02:45:28;15.00;13.00;9.00
80555;PMS5003;69889;55.040;73.076;2023-11-22T02:47:55;16.00;14.00;9.00
80555;PMS5003;69889;55.040;73.076;2023-11-22T02:50:21;17.75;15.00;10.00
80555;PMS5003;69889;55.040;73.076;2023-11-22T02:52:48;16.25;14.25;9.50
80555;PMS5003;69889;55.040;73.076;2023-11-22T02:55:14;24.00;19.00;11.50
80555;PMS5003;69889;55.040;73.076;2023-11-22T02:57:44;19.00;17.00;10.00
80555;PMS5003;69889;55.040;73.076;2023-11-22T03:00:12;17.75;14.00;10.00
80555;PMS5003;69889;55.040;73.076;2023-11-22T03:02:41;14.75;13.25;9.00
80555;PMS5003;69889;55.040;73.076;2023-11-22T03:05:08;17.00;14.00;9.00
80555;PMS5003;69889;55.040;73.076;2023-11-22T03:07:43;20.00;17.00;10.00
80555;PMS5003;69889;55.040;73.076;2023-11-22T03:10:11;16.50;14.50;9.00
80555;PMS5003;69889;55.040;73.076;2023-11-22T03:12:40;15.50;13.50;9.00
80555;PMS5003;69889;55.040;73.076;2023-11-22T03:15:08;16.00;13.50;8.25
80555;PMS5003;69889;55.040;73.076;2023-11-22T03:17:41;16.25;14.25;9.75
80555;PMS5003;69889;55.040;73.076;2023-11-22T03:20:10;17.50;15.25;10.00
80555;PMS5003;69889;55.040;73.076;2023-11-22T03:22:38;14.50;13.00;10.00
80555;PMS5003;69889;55.040;73.076;2023-11-22T03:25:05;15.00;12.00;8.00
80555;PMS5003;69889;55.040;73.076;2023-11-22T03:27:32;13.00;12.00;8.00
80555;PMS5003;69889;55.040;73.076;2023-11-22T03:29:59;15.00;13.00;8.00
80555;PMS5003;69889;55.040;73.076;2023-11-22T03:32:25;17.75;14.00;10.00
80555;PMS5003;69889;55.040;73.076;2023-11-22T03:34:52;15.75;13.75;9.00
80555;PMS5003;69889;55.040;73.076;2023-11-22T03:37:19;15.75;13.00;8.00
80555;PMS5003;69889;55.040;73.076;2023-11-22T03:39:45;15.00;13.00;8.00
80555;PMS5003;69889;55.040;73.076;2023-11-22T03:42:14;20.00;18.00;12.00
80555;PMS5003;69889;55.040;73.076;2023-11-22T03:44:45;19.00;16.50;11.00
80555;PMS5003;69889;55.040;73.076;2023-11-22T03:47:11;20.75;17.00;10.25
80555;PMS5003;69889;55.040;73.076;2023-11-22T03:49:41;19.00;16.00;10.00
80555;PMS5003;69889;55.040;73.076;2023-11-22T03:52:10;23.00;19.50;12.00
80555;PMS5003;69889;55.040;73.076;2023-11-22T03:54:37;20.50;17.00;11.00
80555;PMS5003;69889;55.040;73.076;2023-11-22T03:57:03;14.50;12.50;7.50
80555;PMS5003;69889;55.040;73.076;2023-11-22T03:59:30;19.00;15.00;9.00
80555;PMS5003;69889;55.040;73.076;2023-11-22T04:01:56;19.00;16.00;10.00
80555;PMS5003;69889;55.040;73.076;2023-11-22T04:04:23;13.75;12.75;7.50
80555;PMS5003;69889;55.040;73.076;2023-11-22T04:06:49;17.00;14.75;9.00
80555;PMS5003;69889;55.040;73.076;2023-11-22T04:09:16;14.75;13.75;8.00
80555;PMS5003;69889;55.040;73.076;2023-11-22T04:11:42;18.00;16.00;10.75
80555;PMS5003;69889;55.040;73.076;2023-11-22T04:14:09;18.00;17.00;11.00
80555;PMS5003;69889;55.040;73.076;2023-11-22T04:16:35;18.00;14.00;9.00
80555;PMS5003;69889;55.040;73.076;2023-11-22T04:19:02;18.00;15.25;10.75
80555;PMS5003;69889;55.040;73.076;2023-11-22T04:21:28;23.00;19.00;11.00
80555;PMS5003;69889;55.040;73.076;2023-11-22T04:23:55;20.00;17.00;10.25
80555;PMS5003;69889;55.040;73.076;2023-11-22T04:26:21;18.00;16.00;10.00
80555;PMS5003;69889;55.040;73.076;2023-11-22T04:28:48;19.00;16.00;10.50
80555;PMS5003;69889;55.040;73.076;2023-11-22T04:31:14;22.50;18.00;12.00
80555;PMS5003;69889;55.040;73.076;2023-11-22T04:33:41;22.00;18.50;11.50
80555;PMS5003;69889;55.040;73.076;2023-11-22T04:36:08;18.50;16.00;10.00
80555;PMS5003;69889;55.040;73.076;2023-11-22T04:38:35;22.00;19.00;11.00
80555;PMS5003;69889;55.040;73.076;2023-11-22T04:41:01;20.50;17.75;10.75
80555;PMS5003;69889;55.040;73.076;2023-11-22T04:43:28;19.25;16.50;10.00
80555;PMS5003;69889;55.040;73.076;2023-11-22T04:45:54;19.75;17.75;11.00
80555;PMS5003;69889;55.040;73.076;2023-11-22T04:48:21;21.50;18.50;13.00
80555;PMS5003;69889;55.040;73.076;2023-11-22T04:50:47;20.25;18.50;12.25
80555;PMS5003;69889;55.040;73.076;2023-11-22T04:53:13;25.00;21.00;12.00
80555;PMS5003;69889;55.040;73.076;2023-11-22T04:55:40;21.00;18.25;11.75
80555;PMS5003;69889;55.040;73.076;2023-11-22T04:58:07;22.00;17.00;10.00
80555;PMS5003;69889;55.040;73.076;2023-11-22T05:00:34;19.00;16.00;10.75
80555;PMS5003;69889;55.040;73.076;2023-11-22T05:03:00;23.00;17.00;11.75
80555;PMS5003;69889;55.040;73.076;2023-11-22T05:05:27;17.25;15.00;10.50
80555;PMS5003;69889;55.040;73.076;2023-11-22T05:07:53;21.25;18.00;11.00
80555;PMS5003;69889;55.040;73.076;2023-11-22T05:10:20;22.00;19.00;11.00
80555;PMS5003;69889;55.040;73.076;2023-11-22T05:12:50;19.00;16.50;9.00
80555;PMS5003;69889;55.040;73.076;2023-11-22T05:15:19;19.00;17.00;11.75
80555;PMS5003;69889;55.040;73.076;2023-11-22T05:17:50;16.00;14.00;9.00
80555;PMS5003;69889;55.040;73.076;2023-11-22T05:20:19;19.00;16.25;11.00
80555;PMS5003;69889;55.040;73.076;2023-11-22T05:22:45;20.00;16.75;11.00
80555;PMS5003;69889;55.040;73.076;2023-11-22T05:25:11;23.00;19.00;12.00
80555;PMS5003;69889;55.040;73.076;2023-11-22T05:27:39;18.25;16.50;10.25
80555;PMS5003;69889;55.040;73.076;2023-11-22T05:30:06;18.00;15.00;9.00
80555;PMS5003;69889;55.040;73.076;2023-11-22T05:32:32;18.50;15.00;10.00
80555;PMS5003;69889;55.040;73.076;2023-11-22T05:34:59;17.75;15.50;9.50
80555;PMS5003;69889;55.040;73.076;2023-11-22T05:37:25;20.50;17.00;12.00
80555;PMS5003;69889;55.040;73.076;2023-11-22T05:39:52;15.75;14.00;8.50
80555;PMS5003;69889;55.040;73.076;2023-11-22T05:42:18;18.00;15.00;10.00
80555;PMS5003;69889;55.040;73.076;2023-11-22T05:44:45;15.75;15.00;10.00
80555;PMS5003;69889;55.040;73.076;2023-11-22T05:47:11;18.00;15.25;9.50
80555;PMS5003;69889;55.040;73.076;2023-11-22T05:49:39;21.00;18.00;10.00
80555;PMS5003;69889;55.040;73.076;2023-11-22T05:52:05;24.00;20.00;12.00
80555;PMS5003;69889;55.040;73.076;2023-11-22T05:54:32;19.50;17.00;10.00
80555;PMS5003;69889;55.040;73.076;2023-11-22T05:56:59;23.00;19.00;11.00
80555;PMS5003;69889;55.040;73.076;2023-11-22T05:59:25;18.00;15.00;9.00
80555;PMS5003;69889;55.040;73.076;2023-11-22T06:01:52;22.00;19.00;11.00
80555;PMS5003;69889;55.040;73.076;2023-11-22T06:04:18;22.00;19.00;12.25
80555;PMS5003;69889;55.040;73.076;2023-11-22T06:06:45;23.75;19.50;12.50
80555;PMS5003;69889;55.040;73.076;2023-11-22T06:09:12;21.75;19.25;11.75
80555;PMS5003;69889;55.040;73.076;2023-11-22T06:11:40;19.00;16.75;11.50
80555;PMS5003;69889;55.040;73.076;2023-11-22T06:14:06;19.00;16.00;12.00
80555;PMS5003;69889;55.040;73.076;2023-11-22T06:16:33;22.00;18.00;10.00
80555;PMS5003;69889;55.040;73.076;2023-11-22T06:18:59;14.00;12.00;7.00
80555;PMS5003;69889;55.040;73.076;2023-11-22T06:21:27;15.00;13.00;8.00
80555;PMS5003;69889;55.040;73.076;2023-11-22T06:23:54;15.00;12.25;7.50
80555;PMS5003;69889;55.040;73.076;2023-11-22T06:26:24;15.00;13.00;8.00
80555;PMS5003;69889;55.040;73.076;2023-11-22T06:28:51;13.50;12.50;8.25
80555;PMS5003;69889;55.040;73.076;2023-11-22T06:31:17;14.00;12.75;9.00
80555;PMS5003;69889;55.040;73.076;2023-11-22T06:33:43;12.50;10.75;7.00
80555;PMS5003;69889;55.040;73.076;2023-11-22T06:36:10;13.50;12.00;9.00
80555;PMS5003;69889;55.040;73.076;2023-11-22T06:38:39;15.75;13.25;10.00
80555;PMS5003;69889;55.040;73.076;2023-11-22T06:41:07;12.25;11.00;8.00
80555;PMS5003;69889;55.040;73.076;2023-11-22T06:43:40;13.00;11.00;7.00
80555;PMS5003;69889;55.040;73.076;2023-11-22T06:46:11;10.25;9.00;6.25
80555;PMS5003;69889;55.040;73.076;2023-11-22T06:48:37;14.50;13.00;8.50
80555;PMS5003;69889;55.040;73.076;2023-11-22T06:51:04;11.00;9.50;7.00
80555;PMS5003;69889;55.040;73.076;2023-11-22T06:53:32;16.00;14.00;8.00
80555;PMS5003;69889;55.040;73.076;2023-11-22T06:55:59;14.25;12.25;7.75
80555;PMS5003;69889;55.040;73.076;2023-11-22T06:58:27;12.50;11.00;7.00
80555;PMS5003;69889;55.040;73.076;2023-11-22T07:00:54;12.00;11.00;7.50
80555;PMS5003;69889;55.040;73.076;2023-11-22T07:03:22;13.00;12.00;7.00
80555;PMS5003;69889;55.040;73.076;2023-11-22T07:05:49;13.25;11.50;8.00
80555;PMS5003;69889;55.040;73.076;2023-11-22T07:08:16;13.50;12.00;7.50
80555;PMS5003;69889;55.040;73.076;2023-11-22T07:10:43;15.00;14.00;9.00
80555;PMS5003;69889;55.040;73.076;2023-11-22T07:13:11;11.00;10.00;7.00
80555;PMS5003;69889;55.040;73.076;2023-11-22T07:15:39;13.75;11.00;7.50
80555;PMS5003;69889;55.040;73.076;2023-11-22T07:18:07;13.75;12.00;7.00
80555;PMS5003;69889;55.040;73.076;2023-11-22T07:20:38;11.00;10.25;7.75
80555;PMS5003;69889;55.040;73.076;2023-11-22T07:23:09;16.75;14.25;9.00
80555;PMS5003;69889;55.040;73.076;2023-11-22T07:25:40;15.75;14.00;10.00
80555;PMS5003;69889;55.040;73.076;2023-11-22T07:28:08;14.00;12.00;8.00
80555;PMS5003;69889;55.040;73.076;2023-11-22T07:30:36;14.00;13.00;8.00
80555;PMS5003;69889;55.040;73.076;2023-11-22T07:33:05;15.00;13.25;9.25
80555;PMS5003;69889;55.040;73.076;2023-11-22T07:35:32;17.00;15.00;9.00
80555;PMS5003;69889;55.040;73.076;2023-11-22T07:37:59;20.00;17.00;11.00
80555;PMS5003;69889;55.040;73.076;2023-11-22T07:40:26;19.00;15.00;9.00
80555;PMS5003;69889;55.040;73.076;2023-11-22T07:42:53;18.00;16.00;10.00
80555;PMS5003;69889;55.040;73.076;2023-11-22T07:45:21;15.50;13.50;9.00
80555;PMS5003;69889;55.040;73.076;2023-11-22T07:47:48;15.75;13.00;8.25
80555;PMS5003;69889;55.040;73.076;2023-11-22T07:50:15;20.00;17.00;11.50
80555;PMS5003;69889;55.040;73.076;2023-11-22T07:52:42;14.25;12.50;8.75
80555;PMS5003;69889;55.040;73.076;2023-11-22T07:55:10;19.25;16.50;10.50
80555;PMS5003;69889;55.040;73.076;2023-11-22T07:57:37;13.00;11.00;8.00
80555;PMS5003;69889;55.040;73.076;2023-11-22T08:00:04;15.00;13.75;9.00
80555;PMS5003;69889;55.040;73.076;2023-11-22T08:02:41;11.25;10.00;7.00
80555;PMS5003;69889;55.040;73.076;2023-11-22T08:05:09;19.00;16.00;10.00
80555;PMS5003;69889;55.040;73.076;2023-11-22T08:07:35;18.75;16.25;10.00
80555;PMS5003;69889;55.040;73.076;2023-11-22T08:10:05;20.00;18.00;11.00
80555;PMS5003;69889;55.040;73.076;2023-11-22T08:12:35;14.00;12.75;8.00
80555;PMS5003;69889;55.040;73.076;2023-11-22T08:15:05;13.25;12.25;8.25
80555;PMS5003;69889;55.040;73.076;2023-11-22T08:17:31;19.00;16.50;11.00
80555;PMS5003;69889;55.040;73.076;2023-11-22T08:19:58;15.50;14.00;10.00
80555;PMS5003;69889;55.040;73.076;2023-11-22T08:22:26;26.00;22.00;14.00
80555;PMS5003;69889;55.040;73.076;2023-11-22T08:24:54;16.00;14.00;10.00
80555;PMS5003;69889;55.040;73.076;2023-11-22T08:27:23;24.00;20.00;12.75
80555;PMS5003;69889;55.040;73.076;2023-11-22T08:29:50;34.00;27.00;18.00
80555;PMS5003;69889;55.040;73.076;2023-11-22T08:32:16;19.00;17.75;11.00
80555;PMS5003;69889;55.040;73.076;2023-11-22T08:34:46;21.25;18.00;11.25
80555;PMS5003;69889;55.040;73.076;2023-11-22T08:37:13;21.00;18.00;13.00
80555;PMS5003;69889;55.040;73.076;2023-11-22T08:39:39;19.00;17.25;11.00
80555;PMS5003;69889;55.040;73.076;2023-11-22T08:42:06;23.00;20.25;14.00
80555;PMS5003;69889;55.040;73.076;2023-11-22T08:44:36;19.00;17.00;12.00
80555;PMS5003;69889;55.040;73.076;2023-11-22T08:47:02;25.00;22.00;15.00
80555;PMS5003;69889;55.040;73.076;2023-11-22T08:49:31;27.00;24.00;16.00
80555;PMS5003;69889;55.040;73.076;2023-11-22T08:51:58;20.50;17.25;11.00
80555;PMS5003;69889;55.040;73.076;2023-11-22T08:54:28;18.00;16.00;10.00
80555;PMS5003;69889;55.040;73.076;2023-11-22T08:57:03;17.00;15.00;10.00
80555;PMS5003;69889;55.040;73.076;2023-11-22T08:59:32;20.00;17.00;10.50
80555;PMS5003;69889;55.040;73.076;2023-11-22T09:02:04;21.50;18.50;13.00
80555;PMS5003;69889;55.040;73.076;2023-11-22T09:04:31;23.50;20.00;14.00
80555;PMS5003;69889;55.040;73.076;2023-11-22T09:06:59;26.00;22.25;13.50
80555;PMS5003;69889;55.040;73.076;2023-11-22T09:09:26;20.50;16.75;9.75
80555;PMS5003;69889;55.040;73.076;2023-11-22T09:12:00;28.75;23.00;14.75
80555;PMS5003;69889;55.040;73.076;2023-11-22T09:14:26;24.00;22.00;14.25
80555;PMS5003;69889;55.040;73.076;2023-11-22T09:16:54;24.50;21.75;14.25
80555;PMS5003;69889;55.040;73.076;2023-11-22T09:19:21;25.50;21.25;13.00
80555;PMS5003;69889;55.040;73.076;2023-11-22T09:21:47;20.50;18.00;11.00
80555;PMS5003;69889;55.040;73.076;2023-11-22T09:24:14;20.00;17.00;10.75
80555;PMS5003;69889;55.040;73.076;2023-11-22T09:26:40;23.75;19.50;12.00
80555;PMS5003;69889;55.040;73.076;2023-11-22T09:29:08;23.50;18.50;12.00
80555;PMS5003;69889;55.040;73.076;2023-11-22T09:31:35;25.00;20.00;13.00
80555;PMS5003;69889;55.040;73.076;2023-11-22T09:34:01;21.25;19.25;13.25
80555;PMS5003;69889;55.040;73.076;2023-11-22T09:36:29;22.25;19.50;13.00
80555;PMS5003;69889;55.040;73.076;2023-11-22T09:38:58;24.00;20.00;13.00
80555;PMS5003;69889;55.040;73.076;2023-11-22T09:41:24;24.00;22.00;14.00
80555;PMS5003;69889;55.040;73.076;2023-11-22T09:43:53;25.00;19.25;12.00
80555;PMS5003;69889;55.040;73.076;2023-11-22T09:46:22;21.00;19.25;13.00
80555;PMS5003;69889;55.040;73.076;2023-11-22T09:48:49;25.50;22.00;14.50
80555;PMS5003;69889;55.040;73.076;2023-11-22T09:51:20;22.75;21.00;14.00
80555;PMS5003;69889;55.040;73.076;2023-11-22T09:53:55;27.00;22.00;14.00
80555;PMS5003;69889;55.040;73.076;2023-11-22T09:56:25;24.00;22.00;14.00
80555;PMS5003;69889;55.040;73.076;2023-11-22T09:58:55;29.75;24.00;16.00
80555;PMS5003;69889;55.040;73.076;2023-11-22T10:01:23;30.50;24.75;15.50
80555;PMS5003;69889;55.040;73.076;2023-11-22T10:03:50;29.00;24.00;14.50
80555;PMS5003;69889;55.040;73.076;2023-11-22T10:06:17;26.00;23.00;14.50
80555;PMS5003;69889;55.040;73.076;2023-11-22T10:08:43;29.00;25.00;16.00
80555;PMS5003;69889;55.040;73.076;2023-11-22T10:11:14;25.50;22.00;14.25
80555;PMS5003;69889;55.040;73.076;2023-11-22T10:13:43;24.00;20.75;13.00
80555;PMS5003;69889;55.040;73.076;2023-11-22T10:16:12;29.50;24.00;15.00
80555;PMS5003;69889;55.040;73.076;2023-11-22T10:18:45;25.00;20.00;13.00
80555;PMS5003;69889;55.040;73.076;2023-11-22T10:21:24;27.50;23.00;16.00
80555;PMS5003;69889;55.040;73.076;2023-11-22T10:23:57;23.00;20.00;13.25
80555;PMS5003;69889;55.040;73.076;2023-11-22T10:26:24;32.75;25.00;16.00
80555;PMS5003;69889;55.040;73.076;2023-11-22T10:28:51;22.75;20.00;13.75
80555;PMS5003;69889;55.040;73.076;2023-11-22T10:31:22;24.00;21.00;13.00
80555;PMS5003;69889;55.040;73.076;2023-11-22T10:33:49;26.00;22.00;14.00
80555;PMS5003;69889;55.040;73.076;2023-11-22T10:36:15;24.25;19.00;12.00
80555;PMS5003;69889;55.040;73.076;2023-11-22T10:38:45;24.25;21.00;14.00
80555;PMS5003;69889;55.040;73.076;2023-11-22T10:41:12;27.00;23.25;15.00
80555;PMS5003;69889;55.040;73.076;2023-11-22T10:43:39;26.50;22.00;16.00
80555;PMS5003;69889;55.040;73.076;2023-11-22T10:46:08;25.00;21.25;15.00
80555;PMS5003;69889;55.040;73.076;2023-11-22T10:48:38;20.00;17.00;11.25
80555;PMS5003;69889;55.040;73.076;2023-11-22T10:51:05;24.00;20.75;12.50
80555;PMS5003;69889;55.040;73.076;2023-11-22T10:53:36;22.00;18.00;11.75
80555;PMS5003;69889;55.040;73.076;2023-11-22T10:56:05;21.00;18.00;11.00
80555;PMS5003;69889;55.040;73.076;2023-11-22T10:58:47;14.75;13.75;8.50
80555;PMS5003;69889;55.040;73.076;2023-11-22T11:01:17;16.25;13.25;9.00
80555;PMS5003;69889;55.040;73.076;2023-11-22T11:04:03;21.00;17.50;12.00
80555;PMS5003;69889;55.040;73.076;2023-11-22T11:06:36;19.50;16.25;11.00
80555;PMS5003;69889;55.040;73.076;2023-11-22T11:09:05;22.75;18.25;12.00
80555;PMS5003;69889;55.040;73.076;2023-11-22T11:11:35;22.50;18.25;12.00
80555;PMS5003;69889;55.040;73.076;2023-11-22T11:14:02;20.75;18.00;11.50
80555;PMS5003;69889;55.040;73.076;2023-11-22T11:16:29;22.00;18.25;12.50
80555;PMS5003;69889;55.040;73.076;2023-11-22T11:18:57;18.75;16.00;10.00
80555;PMS5003;69889;55.040;73.076;2023-11-22T11:21:24;22.00;19.00;12.25
80555;PMS5003;69889;55.040;73.076;2023-11-22T11:23:54;19.75;17.00;10.75
80555;PMS5003;69889;55.040;73.076;2023-11-22T11:26:23;17.25;15.00;10.25
80555;PMS5003;69889;55.040;73.076;2023-11-22T11:28:51;25.00;21.00;13.00
80555;PMS5003;69889;55.040;73.076;2023-11-22T11:31:21;23.50;21.00;13.00
80555;PMS5003;69889;55.040;73.076;2023-11-22T11:36:24;26.00;22.00;14.00
80555;PMS5003;69889;55.040;73.076;2023-11-22T11:38:52;26.00;23.00;15.25
80555;PMS5003;69889;55.040;73.076;2023-11-22T11:41:24;35.00;29.00;20.00
80555;PMS5003;69889;55.040;73.076;2023-11-22T11:43:52;24.25;22.00;16.00
80555;PMS5003;69889;55.040;73.076;2023-11-22T11:46:18;22.00;19.25;12.75
80555;PMS5003;69889;55.040;73.076;2023-11-22T11:48:47;18.75;16.50;10.00
80555;PMS5003;69889;55.040;73.076;2023-11-22T11:51:21;18.00;15.00;10.00
80555;PMS5003;69889;55.040;73.076;2023-11-22T11:53:48;20.00;17.00;10.50
80555;PMS5003;69889;55.040;73.076;2023-11-22T11:56:15;20.00;17.00;10.50
80555;PMS5003;69889;55.040;73.076;2023-11-22T11:58:45;20.50;17.25;11.00
80555;PMS5003;69889;55.040;73.076;2023-11-22T12:01:12;16.00;14.00;8.75
80555;PMS5003;69889;55.040;73.076;2023-11-22T12:03:39;18.75;15.75;9.50
80555;PMS5003;69889;55.040;73.076;2023-11-22T12:06:06;18.25;15.75;9.75
80555;PMS5003;69889;55.040;73.076;2023-11-22T12:08:33;18.00;16.00;11.00
80555;PMS5003;69889;55.040;73.076;2023-11-22T12:11:03;19.75;17.00;11.00
80555;PMS5003;69889;55.040;73.076;2023-11-22T12:13:37;16.00;15.00;11.00
80555;PMS5003;69889;55.040;73.076;2023-11-22T12:16:15;20.00;17.00;11.00
80555;PMS5003;69889;55.040;73.076;2023-11-22T12:18:43;18.75;15.25;9.50
80555;PMS5003;69889;55.040;73.076;2023-11-22T12:21:21;18.25;15.50;9.50
80555;PMS5003;69889;55.040;73.076;2023-11-22T12:23:48;15.00;14.00;9.50
80555;PMS5003;69889;55.040;73.076;2023-11-22T12:26:23;16.75;13.75;10.00
80555;PMS5003;69889;55.040;73.076;2023-11-22T12:29:02;18.00;15.00;10.00
80555;PMS5003;69889;55.040;73.076;2023-11-22T12:31:29;13.75;12.75;9.00
80555;PMS5003;69889;55.040;73.076;2023-11-22T12:34:00;16.25;13.00;8.00
80555;PMS5003;69889;55.040;73.076;2023-11-22T12:36:26;16.00;13.00;8.25
80555;PMS5003;69889;55.040;73.076;2023-11-22T12:38:54;17.00;14.00;8.75
80555;PMS5003;69889;55.040;73.076;2023-11-22T12:41:21;15.00;12.00;8.00
80555;PMS5003;69889;55.040;73.076;2023-11-22T12:44:01;16.00;14.00;9.00
80555;PMS5003;69889;55.040;73.076;2023-11-22T12:46:27;15.00;13.00;9.00
80555;PMS5003;69889;55.040;73.076;2023-11-22T12:49:06;17.00;14.00;9.00
80555;PMS5003;69889;55.040;73.076;2023-11-22T12:51:32;15.00;13.00;8.25
80555;PMS5003;69889;55.040;73.076;2023-11-22T12:53:59;14.25;12.00;8.00
80555;PMS5003;69889;55.040;73.076;2023-11-22T12:56:25;14.00;13.00;7.50
80555;PMS5003;69889;55.040;73.076;2023-11-22T12:58:57;15.00;13.00;9.00
80555;PMS5003;69889;55.040;73.076;2023-11-22T13:01:25;15.00;13.00;9.00
80555;PMS5003;69889;55.040;73.076;2023-11-22T13:03:54;17.00;14.00;10.00
80555;PMS5003;69889;55.040;73.076;2023-11-22T13:06:35;17.00;14.00;9.00
80555;PMS5003;69889;55.040;73.076;2023-11-22T13:09:01;16.00;13.25;9.00
80555;PMS5003;69889;55.040;73.076;2023-11-22T13:11:28;15.00;13.00;9.00
80555;PMS5003;69889;55.040;73.076;2023-11-22T13:13:54;15.75;13.00;9.00
80555;PMS5003;69889;55.040;73.076;2023-11-22T13:16:20;17.75;14.75;9.00
80555;PMS5003;69889;55.040;73.076;2023-11-22T13:18:48;15.25;14.00;9.00
80555;PMS5003;69889;55.040;73.076;2023-11-22T13:21:15;16.00;13.50;9.00
80555;PMS5003;69889;55.040;73.076;2023-11-22T13:23:41;18.00;16.00;10.00
80555;PMS5003;69889;55.040;73.076;2023-11-22T13:26:08;18.00;15.00;9.00
80555;PMS5003;69889;55.040;73.076;2023-11-22T13:28:47;18.00;15.00;10.00
80555;PMS5003;69889;55.040;73.076;2023-11-22T13:31:13;15.75;14.00;9.75
80555;PMS5003;69889;55.040;73.076;2023-11-22T13:33:40;18.00;15.25;10.00
80555;PMS5003;69889;55.040;73.076;2023-11-22T13:36:09;16.00;13.50;8.25
80555;PMS5003;69889;55.040;73.076;2023-11-22T13:38:37;15.50;13.50;9.00
80555;PMS5003;69889;55.040;73.076;2023-11-22T13:41:05;14.00;13.00;7.75
80555;PMS5003;69889;55.040;73.076;2023-11-22T13:43:33;15.25;13.50;8.75
80555;PMS5003;69889;55.040;73.076;2023-11-22T13:46:01;16.00;14.00;10.00